Time;durP1;ratioP1;P1;durP2;ratioP2;P2;SDS_P1;SDS_P2;PMS_P1;PMS_P2;Temp;Humidity;BMP_temperature;BMP_pressure;BME280_temperature;BME280_humidity;BME280_pressure;Samples;Min_cycle;Max_cycle;Signal;HPM_P1;HPM_P2
2023/11/11 00:01:42;;;;;;;22.48;20.38;;;;;;;;;;5058386;28;20081;-56
2023/11/11 00:04:08;;;;;;;22.23;20.23;;;;;;;;;;5060138;28;20040;-59
2023/11/11 00:06:34;;;;;;;21.90;19.88;;;;;;;;;;5058845;28;20028;-63
2023/11/11 00:09:00;;;;;;;22.05;20.05;;;;;;;;;;5057424;28;20072;-64
2023/11/11 00:11:26;;;;;;;22.05;20.05;;;;;;;;;;5056282;28;20055;-58
2023/11/11 00:13:52;;;;;;;22.13;20.13;;;;;;;;;;5059650;28;20025;-59
2023/11/11 00:16:21;;;;;;;23.10;21.00;;;;;;;;;;5058950;28;20032;-62
2023/11/11 00:18:48;;;;;;;22.63;20.63;;;;;;;;;;5058598;28;20529;-60
2023/11/11 00:21:14;;;;;;;22.75;20.75;;;;;;;;;;5057554;28;20029;-61
2023/11/11 00:23:40;;;;;;;23.23;21.02;;;;;;;;;;5058531;28;20529;-61
2023/11/11 00:26:06;;;;;;;22.98;20.98;;;;;;;;;;5058591;28;20025;-61
2023/11/11 00:28:33;;;;;;;23.42;21.33;;;;;;;;;;5057551;28;20025;-61
2023/11/11 00:30:59;;;;;;;23.70;21.60;;;;;;;;;;5057734;28;20458;-60
2023/11/11 00:33:25;;;;;;;23.92;21.83;;;;;;;;;;5040117;28;20032;-61
2023/11/11 00:35:51;;;;;;;22.85;20.73;;;;;;;;;;5057212;28;20303;-60
2023/11/11 00:38:17;;;;;;;22.75;20.65;;;;;;;;;;5056371;28;20041;-61
2023/11/11 00:40:43;;;;;;;22.25;20.02;;;;;;;;;;5057446;28;20025;-61
2023/11/11 00:43:10;;;;;;;21.52;19.52;;;;;;;;;;5058268;28;20093;-61
2023/11/11 00:45:36;;;;;;;21.23;18.98;;;;;;;;;;5057595;28;20108;-60
2023/11/11 00:48:02;;;;;;;20.20;18.27;;;;;;;;;;5056390;28;20060;-62
2023/11/11 00:50:28;;;;;;;20.30;18.30;;;;;;;;;;5056873;28;20039;-61
2023/11/11 00:52:55;;;;;;;21.00;18.90;;;;;;;;;;5057208;28;20109;-60
2023/11/11 00:55:21;;;;;;;20.92;18.73;;;;;;;;;;5057667;28;20130;-59
2023/11/11 00:57:47;;;;;;;20.33;18.25;;;;;;;;;;5059055;28;20025;-60
2023/11/11 01:00:19;;;;;;;20.00;18.00;;;;;;;;;;5057719;28;20047;-62
2023/11/11 01:02:45;;;;;;;20.38;18.23;;;;;;;;;;5056728;28;20056;-60
2023/11/11 01:05:12;;;;;;;20.30;18.20;;;;;;;;;;5057739;28;20069;-60
2023/11/11 01:07:37;;;;;;;20.27;18.20;;;;;;;;;;5058088;28;20053;-61
2023/11/11 01:10:04;;;;;;;20.48;18.38;;;;;;;;;;5057064;28;20025;-61
2023/11/11 01:12:30;;;;;;;20.95;18.75;;;;;;;;;;5057997;28;20025;-56
2023/11/11 01:14:56;;;;;;;20.77;18.67;;;;;;;;;;5056530;28;20020;-61
2023/11/11 01:17:23;;;;;;;20.20;18.20;;;;;;;;;;5057321;28;20047;-60
2023/11/11 01:19:49;;;;;;;20.63;18.48;;;;;;;;;;5057810;28;20021;-61
2023/11/11 01:22:19;;;;;;;21.52;19.20;;;;;;;;;;5057768;28;20029;-60
2023/11/11 01:24:45;;;;;;;20.95;18.90;;;;;;;;;;5056489;28;20063;-61
2023/11/11 01:27:12;;;;;;;21.23;19.10;;;;;;;;;;5058714;28;20028;-60
2023/11/11 01:29:42;;;;;;;21.23;18.75;;;;;;;;;;5055729;28;20025;-61
2023/11/11 01:32:08;;;;;;;21.33;19.08;;;;;;;;;;5056818;28;20053;-61
2023/11/11 01:34:34;;;;;;;21.92;19.38;;;;;;;;;;5058448;28;20021;-62
2023/11/11 01:37:05;;;;;;;21.75;19.52;;;;;;;;;;5056862;28;20084;-61
2023/11/11 01:39:31;;;;;;;23.38;19.02;;;;;;;;;;5056822;28;20039;-60
2023/11/11 01:41:57;;;;;;;20.95;18.63;;;;;;;;;;5057210;28;20056;-59
2023/11/11 01:44:24;;;;;;;21.60;19.00;;;;;;;;;;5057989;28;20036;-58
2023/11/11 01:46:53;;;;;;;20.88;18.75;;;;;;;;;;5055412;28;20036;-59
2023/11/11 01:49:21;;;;;;;22.20;18.65;;;;;;;;;;5058213;28;20025;-60
2023/11/11 01:51:47;;;;;;;21.33;18.85;;;;;;;;;;5054943;28;20057;-61
2023/11/11 01:54:15;;;;;;;21.13;18.80;;;;;;;;;;5056728;28;20032;-59
2023/11/11 01:56:41;;;;;;;20.98;18.77;;;;;;;;;;5062491;28;20506;-60
2023/11/11 01:59:08;;;;;;;21.48;19.20;;;;;;;;;;5062792;28;20090;-60
2023/11/11 02:01:34;;;;;;;21.58;18.40;;;;;;;;;;5061925;28;20047;-61
2023/11/11 02:04:00;;;;;;;21.88;18.83;;;;;;;;;;5062874;28;20029;-61
2023/11/11 02:06:27;;;;;;;20.85;18.65;;;;;;;;;;5063303;28;20033;-60
2023/11/11 02:08:53;;;;;;;21.73;19.35;;;;;;;;;;5060416;28;20059;-62
2023/11/11 02:11:19;;;;;;;23.13;19.25;;;;;;;;;;5061518;28;20029;-61
2023/11/11 02:13:45;;;;;;;27.13;20.15;;;;;;;;;;5062295;28;20021;-63
2023/11/11 02:16:12;;;;;;;22.48;19.60;;;;;;;;;;5062083;28;20025;-59
2023/11/11 02:18:38;;;;;;;23.08;20.35;;;;;;;;;;5060342;28;20020;-60
2023/11/11 02:21:04;;;;;;;23.67;20.67;;;;;;;;;;5058505;28;20025;-59
2023/11/11 02:23:34;;;;;;;23.85;20.33;;;;;;;;;;5060254;28;20025;-58
2023/11/11 02:26:00;;;;;;;28.45;20.55;;;;;;;;;;5059475;28;20028;-60
2023/11/11 02:28:26;;;;;;;27.90;22.25;;;;;;;;;;5060596;28;20029;-62
2023/11/11 02:30:52;;;;;;;27.58;21.45;;;;;;;;;;5059974;28;20155;-62
2023/11/11 02:33:19;;;;;;;28.17;21.63;;;;;;;;;;5061634;28;20116;-63
2023/11/11 02:35:45;;;;;;;30.23;22.20;;;;;;;;;;5062508;28;20407;-61
2023/11/11 02:38:12;;;;;;;30.38;22.65;;;;;;;;;;5061957;28;20036;-63
2023/11/11 02:40:42;;;;;;;31.70;24.50;;;;;;;;;;5061932;28;20052;-62
2023/11/11 02:43:08;;;;;;;26.83;23.98;;;;;;;;;;5062489;28;20044;-63
2023/11/11 02:45:34;;;;;;;30.73;23.08;;;;;;;;;;5061358;28;20021;-62
2023/11/11 02:48:01;;;;;;;31.85;24.13;;;;;;;;;;5062405;28;20029;-60
2023/11/11 02:50:27;;;;;;;33.58;25.27;;;;;;;;;;5061259;28;20052;-62
2023/11/11 02:52:54;;;;;;;34.03;24.45;;;;;;;;;;5062195;28;20041;-61
2023/11/11 02:55:20;;;;;;;29.25;23.20;;;;;;;;;;5062535;28;20056;-61
2023/11/11 02:57:46;;;;;;;27.90;23.15;;;;;;;;;;5060561;28;20044;-59
2023/11/11 03:00:12;;;;;;;34.03;25.08;;;;;;;;;;5061188;28;20137;-61
2023/11/11 03:02:39;;;;;;;27.15;21.85;;;;;;;;;;5062216;28;20021;-61
2023/11/11 03:05:05;;;;;;;24.88;22.00;;;;;;;;;;5060986;28;20021;-61
2023/11/11 03:07:32;;;;;;;21.27;19.27;;;;;;;;;;5062027;28;20464;-61
2023/11/11 03:10:01;;;;;;;23.98;21.52;;;;;;;;;;5059902;28;20445;-58
2023/11/11 03:12:27;;;;;;;23.52;21.13;;;;;;;;;;5062380;28;20036;-60
2023/11/11 03:14:53;;;;;;;26.67;23.92;;;;;;;;;;5061613;28;20032;-61
2023/11/11 03:17:19;;;;;;;22.15;20.15;;;;;;;;;;5062098;28;20073;-63
2023/11/11 03:19:45;;;;;;;21.88;19.73;;;;;;;;;;5060367;28;20052;-60
2023/11/11 03:22:11;;;;;;;24.52;22.10;;;;;;;;;;5061081;28;20021;-62
2023/11/11 03:24:37;;;;;;;20.85;18.95;;;;;;;;;;5060730;28;20093;-61
2023/11/11 03:27:03;;;;;;;23.42;21.23;;;;;;;;;;5058629;28;20025;-61
2023/11/11 03:29:29;;;;;;;23.25;20.88;;;;;;;;;;5058072;28;20021;-61
2023/11/11 03:31:55;;;;;;;23.35;21.10;;;;;;;;;;5060185;28;20128;-62
2023/11/11 03:34:22;;;;;;;22.75;20.75;;;;;;;;;;5060684;28;20025;-62
2023/11/11 03:36:48;;;;;;;23.80;21.60;;;;;;;;;;5058391;28;20029;-63
2023/11/11 03:39:14;;;;;;;23.10;21.05;;;;;;;;;;5060137;28;20040;-60
2023/11/11 03:41:40;;;;;;;22.67;20.63;;;;;;;;;;5059280;28;20051;-60
2023/11/11 03:44:08;;;;;;;22.35;20.33;;;;;;;;;;5060681;28;20081;-60
2023/11/11 03:46:34;;;;;;;23.10;20.95;;;;;;;;;;5060447;28;20084;-60
2023/11/11 03:49:00;;;;;;;21.23;19.33;;;;;;;;;;5060289;28;20066;-61
2023/11/11 03:51:26;;;;;;;23.10;20.90;;;;;;;;;;5060317;28;20459;-60
2023/11/11 03:53:52;;;;;;;22.98;20.98;;;;;;;;;;5061863;28;20088;-60
2023/11/11 03:56:19;;;;;;;21.88;19.88;;;;;;;;;;5060713;28;20437;-62
2023/11/11 03:58:45;;;;;;;23.25;21.20;;;;;;;;;;5060064;28;20029;-61
2023/11/11 04:01:11;;;;;;;23.05;20.85;;;;;;;;;;5059297;28;20029;-61
2023/11/11 04:03:39;;;;;;;22.23;20.15;;;;;;;;;;5061260;28;20056;-59
2023/11/11 04:06:05;;;;;;;20.83;18.92;;;;;;;;;;5061074;28;20025;-61
2023/11/11 04:08:34;;;;;;;22.35;20.25;;;;;;;;;;5060425;28;20039;-61
2023/11/11 04:11:02;;;;;;;22.55;20.27;;;;;;;;;;5059689;28;20041;-59
2023/11/11 04:13:28;;;;;;;21.13;19.20;;;;;;;;;;5059819;28;20025;-58
2023/11/11 04:15:54;;;;;;;21.50;19.50;;;;;;;;;;5060115;28;20056;-60
2023/11/11 04:18:20;;;;;;;22.65;20.45;;;;;;;;;;5059426;28;20021;-60
2023/11/11 04:20:46;;;;;;;20.67;18.70;;;;;;;;;;5060232;28;20071;-58
2023/11/11 04:23:12;;;;;;;22.00;19.98;;;;;;;;;;5060597;28;20037;-61
2023/11/11 04:25:38;;;;;;;20.45;18.55;;;;;;;;;;5060400;28;20021;-62
2023/11/11 04:28:04;;;;;;;20.65;18.75;;;;;;;;;;5059647;28;20025;-60
2023/11/11 04:30:30;;;;;;;20.98;18.88;;;;;;;;;;5058182;28;20033;-62
2023/11/11 04:32:56;;;;;;;21.77;19.63;;;;;;;;;;5061245;28;20260;-61
2023/11/11 04:35:22;;;;;;;25.42;23.08;;;;;;;;;;5060003;28;20037;-60
2023/11/11 04:37:49;;;;;;;20.90;19.00;;;;;;;;;;5059098;28;20679;-60
2023/11/11 04:40:15;;;;;;;23.55;21.40;;;;;;;;;;5058742;28;20568;-62
2023/11/11 04:42:43;;;;;;;20.40;18.50;;;;;;;;;;5061227;28;20025;-62
2023/11/11 04:45:09;;;;;;;21.92;19.83;;;;;;;;;;5061172;28;20029;-60
2023/11/11 04:47:35;;;;;;;23.05;20.98;;;;;;;;;;5062003;28;20099;-60
2023/11/11 04:50:02;;;;;;;26.35;21.67;;;;;;;;;;5060004;28;20032;-60
2023/11/11 04:52:28;;;;;;;20.15;18.25;;;;;;;;;;5060755;28;20025;-63
2023/11/11 04:54:54;;;;;;;20.75;18.85;;;;;;;;;;5060465;28;20033;-58
2023/11/11 04:57:20;;;;;;;21.35;19.38;;;;;;;;;;5060555;28;20072;-61
2023/11/11 04:59:47;;;;;;;22.75;20.65;;;;;;;;;;5059514;28;20040;-61
2023/11/11 05:02:13;;;;;;;23.73;21.50;;;;;;;;;;5060531;28;20032;-62
2023/11/11 05:04:39;;;;;;;22.42;20.23;;;;;;;;;;5060069;28;20086;-61
2023/11/11 05:07:05;;;;;;;19.90;18.00;;;;;;;;;;5059743;28;20021;-58
2023/11/11 05:09:31;;;;;;;21.17;19.17;;;;;;;;;;5058298;28;20092;-59
2023/11/11 05:11:57;;;;;;;22.70;20.60;;;;;;;;;;5058760;28;20061;-60
2023/11/11 05:14:24;;;;;;;22.42;20.33;;;;;;;;;;5059537;28;20104;-61
2023/11/11 05:16:50;;;;;;;19.83;17.92;;;;;;;;;;5060373;28;20045;-61
2023/11/11 05:19:17;;;;;;;21.92;19.83;;;;;;;;;;5060401;28;20021;-61
2023/11/11 05:21:43;;;;;;;26.00;20.38;;;;;;;;;;5059893;28;20041;-62
2023/11/11 05:24:10;;;;;;;24.35;21.83;;;;;;;;;;5059743;28;20027;-60
2023/11/11 05:26:38;;;;;;;20.35;18.45;;;;;;;;;;5059954;28;20021;-61
2023/11/11 05:29:04;;;;;;;22.23;20.13;;;;;;;;;;5062013;28;20033;-61
2023/11/11 05:31:31;;;;;;;21.77;19.67;;;;;;;;;;5064932;28;20166;-62
2023/11/11 05:33:57;;;;;;;22.65;20.55;;;;;;;;;;5064054;28;20055;-59
2023/11/11 05:36:24;;;;;;;21.25;19.33;;;;;;;;;;5065466;28;20429;-60
2023/11/11 05:38:50;;;;;;;20.00;18.05;;;;;;;;;;5065403;28;20029;-60
2023/11/11 05:41:16;;;;;;;22.55;20.38;;;;;;;;;;5063843;28;20149;-61
2023/11/11 05:43:42;;;;;;;24.80;19.85;;;;;;;;;;5065671;28;20117;-60
2023/11/11 05:46:08;;;;;;;18.83;17.02;;;;;;;;;;5065698;28;20092;-60
2023/11/11 05:48:38;;;;;;;20.20;18.10;;;;;;;;;;5064732;28;20029;-60
2023/11/11 05:51:05;;;;;;;18.92;17.02;;;;;;;;;;5064369;28;20055;-61
2023/11/11 05:53:31;;;;;;;20.45;18.42;;;;;;;;;;5065088;28;20077;-60
2023/11/11 05:55:57;;;;;;;19.05;17.15;;;;;;;;;;5065017;28;20025;-61
2023/11/11 05:58:23;;;;;;;19.00;17.20;;;;;;;;;;5063451;28;20021;-60
2023/11/11 06:00:49;;;;;;;19.95;18.00;;;;;;;;;;5082722;22;20111;-51
2023/11/11 06:03:15;;;;;;;18.40;16.60;;;;;;;;;;5053363;28;20155;-54
2023/11/11 06:05:41;;;;;;;19.92;18.02;;;;;;;;;;5053667;28;20028;-55
2023/11/11 06:08:10;;;;;;;26.58;20.20;;;;;;;;;;5035360;28;20442;-53
2023/11/11 06:10:37;;;;;;;22.80;20.60;;;;;;;;;;5052654;28;20135;-53
2023/11/11 06:13:05;;;;;;;27.80;21.02;;;;;;;;;;5053513;28;20025;-55
2023/11/11 06:15:32;;;;;;;19.25;17.35;;;;;;;;;;5052997;28;20039;-54
2023/11/11 06:17:58;;;;;;;21.17;18.92;;;;;;;;;;5035387;28;20099;-52
2023/11/11 06:20:24;;;;;;;21.33;19.13;;;;;;;;;;5052429;28;20518;-53
2023/11/11 06:22:53;;;;;;;18.67;16.88;;;;;;;;;;5053003;28;20025;-51
2023/11/11 06:25:19;;;;;;;21.52;19.42;;;;;;;;;;5052962;28;20438;-52
2023/11/11 06:27:46;;;;;;;19.38;17.45;;;;;;;;;;5053098;28;20402;-52
2023/11/11 06:30:12;;;;;;;23.38;20.08;;;;;;;;;;5052132;28;20658;-55
2023/11/11 06:32:39;;;;;;;24.98;20.30;;;;;;;;;;5052909;28;20036;-54
2023/11/11 06:35:08;;;;;;;20.45;17.05;;;;;;;;;;5052994;28;20126;-54
2023/11/11 06:37:35;;;;;;;18.65;16.75;;;;;;;;;;5035055;28;20047;-54
2023/11/11 06:40:02;;;;;;;17.90;16.10;;;;;;;;;;5051730;28;20017;-51
2023/11/11 06:42:28;;;;;;;18.85;16.95;;;;;;;;;;5035096;28;20021;-52
2023/11/11 06:44:55;;;;;;;16.55;14.85;;;;;;;;;;5034805;28;20102;-50
2023/11/11 06:47:21;;;;;;;25.85;18.23;;;;;;;;;;5052454;28;20047;-53
2023/11/11 06:49:47;;;;;;;16.90;15.10;;;;;;;;;;5051963;28;20052;-52
2023/11/11 06:52:13;;;;;;;16.85;15.15;;;;;;;;;;5052756;28;20055;-54
2023/11/11 06:54:40;;;;;;;17.23;15.43;;;;;;;;;;5052486;28;20597;-53
2023/11/11 06:57:06;;;;;;;16.27;14.57;;;;;;;;;;5052481;28;20029;-52
2023/11/11 06:59:32;;;;;;;16.70;14.90;;;;;;;;;;5051495;28;20025;-52
2023/11/11 07:01:58;;;;;;;17.52;15.35;;;;;;;;;;5035049;28;20025;-54
2023/11/11 07:04:24;;;;;;;18.23;16.20;;;;;;;;;;5052868;28;20029;-55
2023/11/11 07:06:51;;;;;;;16.10;14.40;;;;;;;;;;5034698;28;20025;-53
2023/11/11 07:09:20;;;;;;;18.25;16.35;;;;;;;;;;5051949;28;20541;-55
2023/11/11 07:11:47;;;;;;;16.70;14.30;;;;;;;;;;5033870;28;20099;-53
2023/11/11 07:14:13;;;;;;;16.95;13.60;;;;;;;;;;5052469;28;20025;-55
2023/11/11 07:16:39;;;;;;;16.08;13.95;;;;;;;;;;5034614;28;20102;-53
2023/11/11 07:19:06;;;;;;;16.13;14.00;;;;;;;;;;5034201;28;20025;-53
2023/11/11 07:21:32;;;;;;;17.05;15.27;;;;;;;;;;5051691;28;20390;-53
2023/11/11 07:23:58;;;;;;;17.10;15.30;;;;;;;;;;5051930;28;20017;-49
2023/11/11 07:26:25;;;;;;;17.92;16.08;;;;;;;;;;5051839;28;20021;-55
2023/11/11 07:28:52;;;;;;;17.35;15.55;;;;;;;;;;5034155;28;20070;-54
2023/11/11 07:31:19;;;;;;;16.83;15.13;;;;;;;;;;5050909;28;20021;-54
2023/11/11 07:33:45;;;;;;;16.90;15.20;;;;;;;;;;5051562;28;20096;-55
2023/11/11 07:36:12;;;;;;;17.20;15.40;;;;;;;;;;5031279;28;20063;-55
2023/11/11 07:38:41;;;;;;;18.17;15.40;;;;;;;;;;5051330;28;20025;-54
2023/11/11 07:41:07;;;;;;;18.05;15.98;;;;;;;;;;5050707;28;20052;-53
2023/11/11 07:43:34;;;;;;;16.60;14.90;;;;;;;;;;5051419;28;20177;-58
2023/11/11 07:46:01;;;;;;;16.80;15.10;;;;;;;;;;5051239;28;20032;-50
2023/11/11 07:48:27;;;;;;;16.30;14.60;;;;;;;;;;5033391;28;20391;-51
2023/11/11 07:50:53;;;;;;;16.20;14.45;;;;;;;;;;5032671;28;20032;-55
2023/11/11 07:53:20;;;;;;;16.13;13.65;;;;;;;;;;5050041;28;20430;-51
2023/11/11 07:55:46;;;;;;;16.63;14.60;;;;;;;;;;5051180;28;20388;-53
2023/11/11 07:58:15;;;;;;;15.80;13.45;;;;;;;;;;5051131;28;20537;-55
2023/11/11 08:00:41;;;;;;;14.90;12.40;;;;;;;;;;5049992;28;20025;-53
2023/11/11 08:03:10;;;;;;;14.90;12.07;;;;;;;;;;5050950;28;20091;-54
2023/11/11 08:05:36;;;;;;;15.00;12.13;;;;;;;;;;5050974;28;20025;-51
2023/11/11 08:08:03;;;;;;;14.80;11.60;;;;;;;;;;5051059;28;20029;-51
2023/11/11 08:10:29;;;;;;;16.92;11.73;;;;;;;;;;5050222;28;20024;-49
2023/11/11 08:13:02;;;;;;;14.27;10.63;;;;;;;;;;5108107;27;19927;-50
2023/11/11 08:15:28;;;;;;;15.07;11.30;;;;;;;;;;5108152;28;20028;-50
2023/11/11 08:17:54;;;;;;;14.30;10.50;;;;;;;;;;5106689;28;20032;-55
2023/11/11 08:20:21;;;;;;;14.30;10.77;;;;;;;;;;5106392;28;20032;-52
2023/11/11 08:22:48;;;;;;;15.15;11.20;;;;;;;;;;5106285;28;20565;-57
2023/11/11 08:25:14;;;;;;;14.40;10.82;;;;;;;;;;5108106;28;20047;-54
2023/11/11 08:27:41;;;;;;;14.30;10.52;;;;;;;;;;5107984;28;20027;-54
2023/11/11 08:30:10;;;;;;;15.95;13.68;;;;;;;;;;5107145;28;20034;-53
2023/11/11 08:32:36;;;;;;;14.27;10.75;;;;;;;;;;5108020;28;20440;-55
2023/11/11 08:35:03;;;;;;;14.57;10.45;;;;;;;;;;5108012;28;20020;-54
2023/11/11 08:37:29;;;;;;;14.15;10.18;;;;;;;;;;5107767;28;20016;-51
2023/11/11 08:39:55;;;;;;;16.02;10.98;;;;;;;;;;5106656;28;20028;-49
2023/11/11 08:42:21;;;;;;;34.00;11.18;;;;;;;;;;5107448;28;20023;-52
2023/11/11 08:44:49;;;;;;;15.85;10.60;;;;;;;;;;5105961;28;20473;-55
2023/11/11 08:47:15;;;;;;;14.20;10.30;;;;;;;;;;5107629;28;20028;-52
2023/11/11 08:49:41;;;;;;;14.50;10.40;;;;;;;;;;5107451;28;20393;-49
2023/11/11 08:52:07;;;;;;;16.83;10.90;;;;;;;;;;5107068;28;20054;-53
2023/11/11 08:54:33;;;;;;;22.42;11.13;;;;;;;;;;5106264;28;20019;-49
2023/11/11 08:56:59;;;;;;;13.93;9.65;;;;;;;;;;5106865;28;20027;-58
2023/11/11 08:59:25;;;;;;;17.52;11.30;;;;;;;;;;5121703;28;20043;-53
2023/11/11 09:01:51;;;;;;;14.23;10.50;;;;;;;;;;5099365;28;20528;-50
2023/11/11 09:04:17;;;;;;;14.30;10.10;;;;;;;;;;5105900;28;20115;-56
2023/11/11 09:06:44;;;;;;;13.85;9.20;;;;;;;;;;5107299;28;20265;-47
2023/11/11 09:09:14;;;;;;;14.25;10.20;;;;;;;;;;5106378;28;20565;-54
2023/11/11 09:11:40;;;;;;;14.20;9.90;;;;;;;;;;5103794;28;20028;-50
2023/11/11 09:14:06;;;;;;;14.10;9.40;;;;;;;;;;5105369;28;20307;-51
2023/11/11 09:16:33;;;;;;;13.82;9.25;;;;;;;;;;5106078;28;20024;-53
2023/11/11 09:19:05;;;;;;;14.77;9.40;;;;;;;;;;5106875;28;20111;-52
2023/11/11 09:21:32;;;;;;;19.02;10.35;;;;;;;;;;5104638;28;20027;-49
2023/11/11 09:24:02;;;;;;;14.10;9.52;;;;;;;;;;5095532;28;20024;-54
2023/11/11 09:26:28;;;;;;;14.30;9.02;;;;;;;;;;5091706;28;20028;-50
2023/11/11 09:28:54;;;;;;;13.93;9.32;;;;;;;;;;5092948;28;20077;-54
2023/11/11 09:31:20;;;;;;;14.10;9.40;;;;;;;;;;5091912;28;20028;-54
2023/11/11 09:33:47;;;;;;;14.32;9.07;;;;;;;;;;5091089;28;20014;-56
2023/11/11 09:36:13;;;;;;;13.93;8.65;;;;;;;;;;5090895;28;20389;-54
2023/11/11 09:38:40;;;;;;;13.80;8.30;;;;;;;;;;5089554;28;20027;-56
2023/11/11 09:41:06;;;;;;;13.38;7.97;;;;;;;;;;5090584;28;20028;-51
2023/11/11 09:43:33;;;;;;;12.50;7.20;;;;;;;;;;5090909;28;20035;-51
2023/11/11 09:46:00;;;;;;;12.90;7.40;;;;;;;;;;5091312;28;20016;-54
2023/11/11 09:48:26;;;;;;;12.40;7.20;;;;;;;;;;5091211;28;20051;-52
2023/11/11 09:50:52;;;;;;;12.80;7.38;;;;;;;;;;5091751;28;20051;-53
2023/11/11 09:53:19;;;;;;;13.13;7.60;;;;;;;;;;5092167;28;20035;-53
2023/11/11 09:55:45;;;;;;;13.00;7.85;;;;;;;;;;5092298;28;20023;-53
2023/11/11 09:58:11;;;;;;;14.07;8.00;;;;;;;;;;5092304;28;20024;-55
2023/11/11 10:00:38;;;;;;;12.57;7.38;;;;;;;;;;5091720;28;20016;-51
2023/11/11 10:03:04;;;;;;;14.60;8.50;;;;;;;;;;5092458;28;20079;-51
2023/11/11 10:05:30;;;;;;;12.02;7.00;;;;;;;;;;5092035;28;20024;-51
2023/11/11 10:07:56;;;;;;;13.35;7.95;;;;;;;;;;5090949;28;20465;-55
2023/11/11 10:10:24;;;;;;;15.48;8.73;;;;;;;;;;5090802;28;20050;-51
2023/11/11 10:12:51;;;;;;;12.85;7.45;;;;;;;;;;5093064;28;20056;-54
2023/11/11 10:15:17;;;;;;;12.40;7.25;;;;;;;;;;5092624;28;20024;-52
2023/11/11 10:17:43;;;;;;;12.50;7.50;;;;;;;;;;5092171;28;20081;-50
2023/11/11 10:20:15;;;;;;;14.82;7.93;;;;;;;;;;5091510;28;20095;-52
2023/11/11 10:22:46;;;;;;;13.65;8.00;;;;;;;;;;5092031;28;20319;-52
2023/11/11 10:25:17;;;;;;;20.17;12.90;;;;;;;;;;5091019;28;20443;-54
2023/11/11 10:27:57;;;;;;;12.55;7.35;;;;;;;;;;5091610;28;20020;-54
2023/11/11 10:30:24;;;;;;;12.15;7.20;;;;;;;;;;5091156;28;20024;-51
2023/11/11 10:32:51;;;;;;;13.73;7.80;;;;;;;;;;5089686;28;20282;-52
2023/11/11 10:35:17;;;;;;;12.35;7.28;;;;;;;;;;5090581;28;20415;-55
2023/11/11 10:37:43;;;;;;;14.75;7.80;;;;;;;;;;5092113;28;20143;-52
2023/11/11 10:40:10;;;;;;;13.63;8.07;;;;;;;;;;5091726;28;20020;-53
2023/11/11 10:42:36;;;;;;;11.45;6.75;;;;;;;;;;5091924;28;20020;-53
2023/11/11 10:45:05;;;;;;;11.50;6.68;;;;;;;;;;5091663;28;20027;-54
2023/11/11 10:47:34;;;;;;;14.02;7.93;;;;;;;;;;5091310;28;20043;-52
2023/11/11 10:50:01;;;;;;;13.73;7.10;;;;;;;;;;5090754;28;20044;-51
2023/11/11 10:52:28;;;;;;;15.25;7.82;;;;;;;;;;5090520;28;20028;-51
2023/11/11 10:54:56;;;;;;;12.60;7.15;;;;;;;;;;5091186;28;20107;-48
2023/11/11 10:57:24;;;;;;;12.10;7.10;;;;;;;;;;5091263;28;20016;-52
2023/11/11 10:59:50;;;;;;;13.18;7.40;;;;;;;;;;5089051;28;20028;-51
2023/11/11 11:02:16;;;;;;;15.00;7.20;;;;;;;;;;5089845;28;20022;-53
2023/11/11 11:04:45;;;;;;;11.60;6.60;;;;;;;;;;5089991;28;20111;-53
2023/11/11 11:07:15;;;;;;;13.60;7.07;;;;;;;;;;5090056;28;20035;-53
2023/11/11 11:09:50;;;;;;;13.23;7.57;;;;;;;;;;5090146;28;20067;-53
2023/11/11 11:12:26;;;;;;;17.73;8.02;;;;;;;;;;4734530;28;10000238;-51
2023/11/11 11:14:55;;;;;;;15.05;7.10;;;;;;;;;;5079144;28;20017;-51
2023/11/11 11:17:36;;;;;;;13.38;7.45;;;;;;;;;;5086107;28;20059;-53
2023/11/11 11:20:08;;;;;;;14.40;7.85;;;;;;;;;;5086670;28;20501;-51
2023/11/11 11:22:37;;;;;;;11.68;6.80;;;;;;;;;;5068463;28;20799;-49
2023/11/11 11:25:21;;;;;;;13.70;8.13;;;;;;;;;;5065591;28;20032;-54
2023/11/11 11:28:08;;;;;;;13.57;7.28;;;;;;;;;;5067171;28;20028;-51
2023/11/11 11:30:34;;;;;;;10.57;6.20;;;;;;;;;;5081968;28;20116;-54
2023/11/11 11:33:00;;;;;;;12.60;7.38;;;;;;;;;;5090663;28;20365;-55
2023/11/11 11:35:27;;;;;;;12.30;7.20;;;;;;;;;;5090439;28;20555;-54
2023/11/11 11:37:54;;;;;;;11.80;6.60;;;;;;;;;;5074835;28;20024;-54
2023/11/11 11:40:22;;;;;;;12.60;7.28;;;;;;;;;;5069131;28;20029;-55
2023/11/11 11:42:49;;;;;;;11.25;6.55;;;;;;;;;;5078582;28;20044;-53
2023/11/11 11:45:16;;;;;;;10.65;6.20;;;;;;;;;;5088221;28;20508;-56
2023/11/11 11:47:43;;;;;;;12.23;6.90;;;;;;;;;;5088430;28;20023;-56
2023/11/11 11:50:09;;;;;;;13.05;7.55;;;;;;;;;;5089307;28;20027;-54
2023/11/11 11:52:35;;;;;;;12.43;7.05;;;;;;;;;;5088796;28;20454;-52
2023/11/11 11:55:01;;;;;;;13.68;7.63;;;;;;;;;;5090056;28;20069;-53
2023/11/11 11:57:27;;;;;;;13.65;7.50;;;;;;;;;;5088608;28;20028;-52
2023/11/11 12:00:13;;;;;;;14.40;7.88;;;;;;;;;;5089467;28;20024;-54
2023/11/11 12:02:40;;;;;;;11.15;6.43;;;;;;;;;;5090750;28;20044;-51
2023/11/11 12:05:06;;;;;;;10.82;6.30;;;;;;;;;;5089910;28;20051;-54
2023/11/11 12:07:33;;;;;;;12.65;7.03;;;;;;;;;;5089887;28;20063;-54
2023/11/11 12:09:59;;;;;;;14.00;7.93;;;;;;;;;;5089583;28;20075;-56
2023/11/11 12:12:29;;;;;;;12.38;7.05;;;;;;;;;;5090044;28;20119;-53
2023/11/11 12:14:55;;;;;;;12.15;7.00;;;;;;;;;;5074582;28;20086;-55
2023/11/11 12:17:21;;;;;;;12.68;7.05;;;;;;;;;;5069953;28;20145;-57
2023/11/11 12:19:47;;;;;;;16.38;7.78;;;;;;;;;;5067632;28;20707;-53
2023/11/11 12:22:13;;;;;;;12.73;7.47;;;;;;;;;;5087076;28;20154;-55
2023/11/11 12:24:40;;;;;;;14.05;8.13;;;;;;;;;;5089460;28;20024;-51
2023/11/11 12:27:07;;;;;;;12.70;7.43;;;;;;;;;;5089417;28;20103;-52
2023/11/11 12:29:40;;;;;;;12.23;7.15;;;;;;;;;;5089249;28;20121;-53
2023/11/11 12:32:06;;;;;;;10.93;6.45;;;;;;;;;;5089494;28;20035;-50
2023/11/11 12:34:33;;;;;;;14.20;8.48;;;;;;;;;;5089561;28;20020;-51
2023/11/11 12:36:59;;;;;;;15.02;7.35;;;;;;;;;;5089488;28;20078;-50
2023/11/11 12:39:26;;;;;;;13.45;7.90;;;;;;;;;;5088309;28;20020;-56
2023/11/11 12:41:52;;;;;;;11.57;6.80;;;;;;;;;;5088807;28;20035;-52
2023/11/11 12:44:19;;;;;;;12.30;7.15;;;;;;;;;;5089345;28;20043;-53
2023/11/11 12:46:46;;;;;;;12.50;7.25;;;;;;;;;;5089774;28;20024;-54
2023/11/11 12:49:16;;;;;;;15.23;8.18;;;;;;;;;;5088211;28;20112;-56
2023/11/11 12:51:42;;;;;;;13.15;7.25;;;;;;;;;;5088558;28;20116;-51
2023/11/11 12:54:09;;;;;;;11.35;6.68;;;;;;;;;;5089484;28;20036;-54
2023/11/11 12:56:35;;;;;;;13.00;7.40;;;;;;;;;;5089532;28;20044;-50
2023/11/11 12:59:11;;;;;;;13.48;7.97;;;;;;;;;;5090324;28;20107;-52
2023/11/11 13:01:38;;;;;;;13.75;7.88;;;;;;;;;;5092401;28;20024;-51
2023/11/11 13:04:04;;;;;;;13.48;8.13;;;;;;;;;;5092838;28;20081;-52
2023/11/11 13:06:34;;;;;;;15.40;7.78;;;;;;;;;;5093130;28;20367;-51
2023/11/11 13:09:04;;;;;;;14.48;8.98;;;;;;;;;;5093571;28;20024;-52
2023/11/11 13:11:32;;;;;;;12.77;7.75;;;;;;;;;;5092346;28;20723;-53
2023/11/11 13:13:59;;;;;;;12.55;7.38;;;;;;;;;;5085526;28;20024;-54
2023/11/11 13:16:25;;;;;;;13.00;7.43;;;;;;;;;;5072995;28;20028;-56
2023/11/11 13:18:55;;;;;;;14.23;8.35;;;;;;;;;;5072820;28;20174;-53
2023/11/11 13:21:26;;;;;;;12.32;7.22;;;;;;;;;;5081706;28;20039;-56
2023/11/11 13:23:52;;;;;;;12.85;7.18;;;;;;;;;;5090533;28;20024;-51
2023/11/11 13:26:20;;;;;;;13.20;9.25;;;;;;;;;;5092652;28;20024;-52
2023/11/11 13:28:48;;;;;;;14.00;8.27;;;;;;;;;;5092789;28;20021;-52
2023/11/11 13:31:14;;;;;;;13.52;8.18;;;;;;;;;;5090331;28;20093;-52
2023/11/11 13:33:40;;;;;;;12.80;7.60;;;;;;;;;;5092712;28;20097;-52
2023/11/11 13:36:13;;;;;;;12.93;7.20;;;;;;;;;;5092616;28;20031;-53
2023/11/11 13:38:42;;;;;;;12.98;7.93;;;;;;;;;;5092303;28;20024;-51
2023/11/11 13:41:11;;;;;;;15.80;8.55;;;;;;;;;;5091464;28;20026;-50
2023/11/11 13:43:37;;;;;;;16.45;8.98;;;;;;;;;;5091158;28;20031;-54
2023/11/11 13:46:04;;;;;;;13.27;7.30;;;;;;;;;;5091797;28;20031;-55
2023/11/11 13:48:30;;;;;;;14.18;8.05;;;;;;;;;;5092358;28;20020;-50
2023/11/11 13:50:58;;;;;;;14.02;7.85;;;;;;;;;;5091299;28;20111;-54
2023/11/11 13:53:24;;;;;;;14.00;8.30;;;;;;;;;;5091902;28;20513;-57
2023/11/11 13:55:50;;;;;;;15.75;8.35;;;;;;;;;;5092605;28;20463;-50
2023/11/11 13:58:16;;;;;;;13.15;8.23;;;;;;;;;;5092578;28;20058;-49
2023/11/11 14:00:42;;;;;;;13.30;7.35;;;;;;;;;;5091633;28;20016;-53
2023/11/11 14:03:10;;;;;;;11.85;6.88;;;;;;;;;;5092001;28;20020;-50
2023/11/11 14:05:44;;;;;;;13.00;7.70;;;;;;;;;;5091800;28;20367;-54
2023/11/11 14:08:11;;;;;;;14.07;8.60;;;;;;;;;;5092006;28;20020;-54
2023/11/11 14:10:37;;;;;;;16.38;8.27;;;;;;;;;;5090659;28;20055;-51
2023/11/11 14:13:03;;;;;;;12.93;6.85;;;;;;;;;;5091535;28;20398;-51
2023/11/11 14:15:38;;;;;;;12.60;7.10;;;;;;;;;;5090642;28;20420;-52
2023/11/11 14:18:04;;;;;;;13.13;7.65;;;;;;;;;;5092101;28;20083;-51
2023/11/11 14:20:30;;;;;;;11.88;6.90;;;;;;;;;;5090950;28;20365;-53